sensor_id;sensor_type;location;lat;lon;timestamp;pressure;altitude;pressure_sealevel;temperature;humidity
49072;BME280;52656;52.610;10.236;2023-03-20T00:00:48;101181.78;;;9.43;77.73
49072;BME280;52656;52.610;10.236;2023-03-20T00:03:14;101186.19;;;9.43;77.80
49072;BME280;52656;52.610;10.236;2023-03-20T00:05:40;101196.78;;;9.43;78.10
49072;BME280;52656;52.610;10.236;2023-03-20T00:08:05;101192.59;;;9.36;77.18
49072;BME280;52656;52.610;10.236;2023-03-20T00:10:39;101190.09;;;9.30;78.13
49072;BME280;52656;52.610;10.236;2023-03-20T00:13:06;101176.94;;;9.28;78.81
49072;BME280;52656;52.610;10.236;2023-03-20T00:15:35;101182.41;;;9.21;79.98
49072;BME280;52656;52.610;10.236;2023-03-20T00:18:02;101187.50;;;9.28;79.40
49072;BME280;52656;52.610;10.236;2023-03-20T00:20:28;101183.94;;;9.29;79.81
49072;BME280;52656;52.610;10.236;2023-03-20T00:22:53;101186.59;;;9.29;79.26
49072;BME280;52656;52.610;10.236;2023-03-20T00:25:22;101189.34;;;9.25;79.43
49072;BME280;52656;52.610;10.236;2023-03-20T00:27:49;101190.44;;;9.17;80.24
49072;BME280;52656;52.610;10.236;2023-03-20T00:30:26;101191.63;;;9.06;80.82
49072;BME280;52656;52.610;10.236;2023-03-20T00:32:53;101197.09;;;9.00;81.37
49072;BME280;52656;52.610;10.236;2023-03-20T00:35:28;101199.06;;;8.90;82.00
49072;BME280;52656;52.610;10.236;2023-03-20T00:37:56;101204.47;;;8.85;82.29
49072;BME280;52656;52.610;10.236;2023-03-20T00:40:25;101204.50;;;8.84;82.48
49072;BME280;52656;52.610;10.236;2023-03-20T00:42:58;101217.13;;;8.73;83.49
49072;BME280;52656;52.610;10.236;2023-03-20T00:45:24;101214.44;;;8.74;83.39
49072;BME280;52656;52.610;10.236;2023-03-20T00:47:50;101217.78;;;8.82;83.37
49072;BME280;52656;52.610;10.236;2023-03-20T00:50:22;101214.97;;;8.88;83.64
49072;BME280;52656;52.610;10.236;2023-03-20T00:52:49;101208.50;;;9.00;83.50
49072;BME280;52656;52.610;10.236;2023-03-20T00:55:16;101209.25;;;9.05;83.11
49072;BME280;52656;52.610;10.236;2023-03-20T00:57:48;101209.19;;;9.08;82.93
49072;BME280;52656;52.610;10.236;2023-03-20T01:03:23;101207.97;;;9.20;82.64
49072;BME280;52656;52.610;10.236;2023-03-20T01:05:50;101214.84;;;9.27;82.44
49072;BME280;52656;52.610;10.236;2023-03-20T01:08:18;101217.50;;;9.27;82.08
49072;BME280;52656;52.610;10.236;2023-03-20T01:10:45;101216.44;;;9.33;81.60
49072;BME280;52656;52.610;10.236;2023-03-20T01:13:24;101222.47;;;9.38;81.54
49072;BME280;52656;52.610;10.236;2023-03-20T01:15:51;101224.94;;;9.46;81.13
49072;BME280;52656;52.610;10.236;2023-03-20T01:18:18;101230.22;;;9.46;81.01
49072;BME280;52656;52.610;10.236;2023-03-20T01:20:44;101225.59;;;9.52;80.72
49072;BME280;52656;52.610;10.236;2023-03-20T01:23:10;101220.16;;;9.58;81.05
49072;BME280;52656;52.610;10.236;2023-03-20T01:25:36;101232.50;;;9.58;80.36
49072;BME280;52656;52.610;10.236;2023-03-20T01:28:03;101228.91;;;9.60;80.25
49072;BME280;52656;52.610;10.236;2023-03-20T01:30:36;101227.06;;;9.62;80.15
49072;BME280;52656;52.610;10.236;2023-03-20T01:33:08;101240.22;;;9.65;80.46
49072;BME280;52656;52.610;10.236;2023-03-20T01:35:36;101237.44;;;9.70;80.73
49072;BME280;52656;52.610;10.236;2023-03-20T01:38:01;101233.94;;;9.69;80.23
49072;BME280;52656;52.610;10.236;2023-03-20T01:40:29;101236.47;;;9.74;80.88
49072;BME280;52656;52.610;10.236;2023-03-20T01:42:57;101231.13;;;9.76;79.24
49072;BME280;52656;52.610;10.236;2023-03-20T01:45:27;101235.53;;;9.75;79.19
49072;BME280;52656;52.610;10.236;2023-03-20T01:47:54;101235.53;;;9.75;79.41
49072;BME280;52656;52.610;10.236;2023-03-20T01:50:21;101238.13;;;9.78;79.46
49072;BME280;52656;52.610;10.236;2023-03-20T01:52:54;101237.25;;;9.78;79.59
49072;BME280;52656;52.610;10.236;2023-03-20T01:55:21;101237.13;;;9.81;79.29
49072;BME280;52656;52.610;10.236;2023-03-20T01:57:46;101239.91;;;9.78;80.47
49072;BME280;52656;52.610;10.236;2023-03-20T02:00:14;101246.81;;;9.83;79.60
49072;BME280;52656;52.610;10.236;2023-03-20T02:02:43;101241.53;;;9.83;79.38
49072;BME280;52656;52.610;10.236;2023-03-20T02:05:10;101242.38;;;9.84;79.74
49072;BME280;52656;52.610;10.236;2023-03-20T02:07:38;101244.19;;;9.82;79.89
49072;BME280;52656;52.610;10.236;2023-03-20T02:10:09;101246.84;;;9.80;80.20
49072;BME280;52656;52.610;10.236;2023-03-20T02:12:35;101250.31;;;9.84;80.16
49072;BME280;52656;52.610;10.236;2023-03-20T02:15:03;101247.63;;;9.85;79.43
49072;BME280;52656;52.610;10.236;2023-03-20T02:17:28;101259.13;;;9.84;80.19
49072;BME280;52656;52.610;10.236;2023-03-20T02:23:09;101257.22;;;9.89;79.75
49072;BME280;52656;52.610;10.236;2023-03-20T02:26:10;101262.56;;;9.88;79.89
49072;BME280;52656;52.610;10.236;2023-03-20T02:37:47;101259.19;;;9.83;81.00
49072;BME280;52656;52.610;10.236;2023-03-20T02:46:18;101265.47;;;9.77;81.35
49072;BME280;52656;52.610;10.236;2023-03-20T02:49:12;101264.69;;;9.74;82.35
49072;BME280;52656;52.610;10.236;2023-03-20T02:52:02;101265.69;;;9.69;82.29
49072;BME280;52656;52.610;10.236;2023-03-20T03:00:03;101261.25;;;9.70;82.66
49072;BME280;52656;52.610;10.236;2023-03-20T03:02:37;101246.25;;;9.71;81.96
49072;BME280;52656;52.610;10.236;2023-03-20T03:05:17;101256.09;;;9.65;83.32
49072;BME280;52656;52.610;10.236;2023-03-20T03:07:47;101249.13;;;9.63;83.46
49072;BME280;52656;52.610;10.236;2023-03-20T03:10:19;101250.13;;;9.59;83.35
49072;BME280;52656;52.610;10.236;2023-03-20T03:12:48;101250.00;;;9.63;83.58
49072;BME280;52656;52.610;10.236;2023-03-20T03:15:20;101250.94;;;9.61;83.34
49072;BME280;52656;52.610;10.236;2023-03-20T03:17:49;101250.03;;;9.62;83.45
49072;BME280;52656;52.610;10.236;2023-03-20T03:20:21;101250.88;;;9.64;83.02
49072;BME280;52656;52.610;10.236;2023-03-20T03:22:48;101250.06;;;9.60;83.31
49072;BME280;52656;52.610;10.236;2023-03-20T03:25:14;101254.56;;;9.57;82.99
49072;BME280;52656;52.610;10.236;2023-03-20T03:27:42;101248.34;;;9.59;82.84
49072;BME280;52656;52.610;10.236;2023-03-20T03:30:19;101250.03;;;9.62;82.20
49072;BME280;52656;52.610;10.236;2023-03-20T03:32:50;101241.28;;;9.60;82.18
49072;BME280;52656;52.610;10.236;2023-03-20T03:35:20;101241.28;;;9.60;81.48
49072;BME280;52656;52.610;10.236;2023-03-20T03:37:57;101239.81;;;9.50;82.08
49072;BME280;52656;52.610;10.236;2023-03-20T03:40:37;101245.78;;;9.56;82.11
49072;BME280;52656;52.610;10.236;2023-03-20T03:43:17;101229.22;;;9.50;81.72
49072;BME280;52656;52.610;10.236;2023-03-20T03:45:49;101231.03;;;9.48;81.97
49072;BME280;52656;52.610;10.236;2023-03-20T03:48:47;101231.16;;;9.43;81.72
49072;BME280;52656;52.610;10.236;2023-03-20T03:51:13;101239.19;;;9.40;81.15
49072;BME280;52656;52.610;10.236;2023-03-20T03:53:44;101243.56;;;9.41;81.41
49072;BME280;52656;52.610;10.236;2023-03-20T03:56:16;101243.56;;;9.41;80.60
49072;BME280;52656;52.610;10.236;2023-03-20T03:58:48;101234.84;;;9.37;80.69
49072;BME280;52656;52.610;10.236;2023-03-20T04:01:16;101245.47;;;9.36;80.63
49072;BME280;52656;52.610;10.236;2023-03-20T04:03:49;101246.44;;;9.32;80.33
49072;BME280;52656;52.610;10.236;2023-03-20T04:06:16;101249.22;;;9.27;80.70
49072;BME280;52656;52.610;10.236;2023-03-20T04:08:42;101244.28;;;9.13;80.66
49072;BME280;52656;52.610;10.236;2023-03-20T04:11:14;101238.56;;;8.96;81.09
49072;BME280;52656;52.610;10.236;2023-03-20T04:13:40;101241.53;;;8.82;81.45
49072;BME280;52656;52.610;10.236;2023-03-20T04:16:06;101245.53;;;8.63;81.95
49072;BME280;52656;52.610;10.236;2023-03-20T04:18:36;101247.59;;;8.49;82.47
49072;BME280;52656;52.610;10.236;2023-03-20T04:21:01;101247.94;;;8.35;83.27
49072;BME280;52656;52.610;10.236;2023-03-20T04:23:27;101244.56;;;8.28;82.95
49072;BME280;52656;52.610;10.236;2023-03-20T04:25:52;101244.69;;;8.21;82.93
49072;BME280;52656;52.610;10.236;2023-03-20T04:28:17;101245.19;;;7.98;84.55
49072;BME280;52656;52.610;10.236;2023-03-20T04:30:43;101245.34;;;7.90;84.77
49072;BME280;52656;52.610;10.236;2023-03-20T04:33:12;101239.19;;;7.91;84.19
49072;BME280;52656;52.610;10.236;2023-03-20T04:35:37;101237.59;;;7.82;84.33
49072;BME280;52656;52.610;10.236;2023-03-20T04:38:03;101235.06;;;7.76;84.91
49072;BME280;52656;52.610;10.236;2023-03-20T04:40:28;101235.25;;;7.69;84.79
49072;BME280;52656;52.610;10.236;2023-03-20T04:42:55;101235.53;;;7.53;86.42
49072;BME280;52656;52.610;10.236;2023-03-20T04:45:22;101231.22;;;7.51;85.72
49072;BME280;52656;52.610;10.236;2023-03-20T04:47:47;101219.81;;;7.49;86.78
49072;BME280;52656;52.610;10.236;2023-03-20T04:50:13;101226.03;;;7.46;86.75
49072;BME280;52656;52.610;10.236;2023-03-20T04:52:38;101230.53;;;7.39;87.51
49072;BME280;52656;52.610;10.236;2023-03-20T04:55:04;101229.63;;;7.42;87.49
49072;BME280;52656;52.610;10.236;2023-03-20T04:57:30;101237.47;;;7.44;87.41
49072;BME280;52656;52.610;10.236;2023-03-20T04:59:56;101233.06;;;7.44;86.34
49072;BME280;52656;52.610;10.236;2023-03-20T05:02:21;101231.38;;;7.42;86.13
49072;BME280;52656;52.610;10.236;2023-03-20T05:04:46;101236.69;;;7.38;86.38
49072;BME280;52656;52.610;10.236;2023-03-20T05:07:12;101237.66;;;7.34;86.47
49072;BME280;52656;52.610;10.236;2023-03-20T05:09:37;101245.69;;;7.28;86.25
49072;BME280;52656;52.610;10.236;2023-03-20T05:12:03;101236.84;;;7.31;86.13
49072;BME280;52656;52.610;10.236;2023-03-20T05:14:28;101241.16;;;7.35;85.91
49072;BME280;52656;52.610;10.236;2023-03-20T05:16:53;101244.72;;;7.32;86.17
49072;BME280;52656;52.610;10.236;2023-03-20T05:19:19;101240.28;;;7.36;85.54
49072;BME280;52656;52.610;10.236;2023-03-20T05:21:44;101244.59;;;7.38;85.03
49072;BME280;52656;52.610;10.236;2023-03-20T05:24:09;101247.38;;;7.31;87.00
49072;BME280;52656;52.610;10.236;2023-03-20T05:26:35;101237.56;;;7.39;86.36
49072;BME280;52656;52.610;10.236;2023-03-20T05:29:00;101244.47;;;7.45;86.49
49072;BME280;52656;52.610;10.236;2023-03-20T05:31:26;101248.84;;;7.47;86.63
49072;BME280;52656;52.610;10.236;2023-03-20T05:33:51;101239.88;;;7.56;86.59
49072;BME280;52656;52.610;10.236;2023-03-20T05:36:16;101249.25;;;7.71;85.98
49072;BME280;52656;52.610;10.236;2023-03-20T05:38:42;101241.06;;;7.86;84.85
49072;BME280;52656;52.610;10.236;2023-03-20T05:41:07;101244.38;;;7.96;84.45
49072;BME280;52656;52.610;10.236;2023-03-20T05:43:32;101243.28;;;8.06;83.94
49072;BME280;52656;52.610;10.236;2023-03-20T05:45:58;101248.28;;;8.18;83.12
49072;BME280;52656;52.610;10.236;2023-03-20T05:48:23;101239.94;;;8.38;82.33
49072;BME280;52656;52.610;10.236;2023-03-20T05:50:48;101252.78;;;8.55;81.79
49072;BME280;52656;52.610;10.236;2023-03-20T05:53:14;101249.81;;;8.69;81.24
49072;BME280;52656;52.610;10.236;2023-03-20T05:55:40;101242.59;;;8.75;80.44
49072;BME280;52656;52.610;10.236;2023-03-20T05:58:08;101239.09;;;8.75;80.44
49072;BME280;52656;52.610;10.236;2023-03-20T06:00:33;101241.44;;;8.85;80.22
49072;BME280;52656;52.610;10.236;2023-03-20T06:02:59;101245.56;;;8.97;79.82
49072;BME280;52656;52.610;10.236;2023-03-20T06:05:24;101247.91;;;9.09;79.36
49072;BME280;52656;52.610;10.236;2023-03-20T06:07:50;101256.66;;;9.11;79.04
49072;BME280;52656;52.610;10.236;2023-03-20T06:10:15;101246.06;;;9.13;78.61
49072;BME280;52656;52.610;10.236;2023-03-20T06:12:41;101246.94;;;9.12;78.45
49072;BME280;52656;52.610;10.236;2023-03-20T06:15:06;101247.78;;;9.14;78.89
49072;BME280;52656;52.610;10.236;2023-03-20T06:17:33;101247.75;;;9.15;78.44
49072;BME280;52656;52.610;10.236;2023-03-20T06:19:58;101258.25;;;9.18;78.33
49072;BME280;52656;52.610;10.236;2023-03-20T06:22:24;101258.19;;;9.20;78.36
49072;BME280;52656;52.610;10.236;2023-03-20T06:24:49;101253.47;;;9.33;78.49
49072;BME280;52656;52.610;10.236;2023-03-20T06:27:15;101258.94;;;9.27;78.14
49072;BME280;52656;52.610;10.236;2023-03-20T06:29:41;101264.84;;;9.36;77.70
49072;BME280;52656;52.610;10.236;2023-03-20T06:32:07;101262.84;;;9.45;77.91
49072;BME280;52656;52.610;10.236;2023-03-20T06:34:33;101262.50;;;9.24;78.25
49072;BME280;52656;52.610;10.236;2023-03-20T06:36:58;101266.38;;;9.43;77.84
49072;BME280;52656;52.610;10.236;2023-03-20T06:39:23;101267.59;;;9.32;77.87
49072;BME280;52656;52.610;10.236;2023-03-20T06:41:49;101264.34;;;9.53;77.11
49072;BME280;52656;52.610;10.236;2023-03-20T06:44:15;101273.81;;;9.62;77.22
49072;BME280;52656;52.610;10.236;2023-03-20T06:46:42;101272.97;;;9.61;76.74
49072;BME280;52656;52.610;10.236;2023-03-20T06:49:07;101268.28;;;9.71;77.07
49072;BME280;52656;52.610;10.236;2023-03-20T06:51:32;101272.94;;;9.63;76.43
49072;BME280;52656;52.610;10.236;2023-03-20T06:53:58;101269.38;;;9.64;76.46
49072;BME280;52656;52.610;10.236;2023-03-20T06:56:23;101266.50;;;9.72;76.12
49072;BME280;52656;52.610;10.236;2023-03-20T06:58:49;101272.09;;;9.61;76.73
49072;BME280;52656;52.610;10.236;2023-03-20T07:01:15;101277.97;;;9.72;76.88
49072;BME280;52656;52.610;10.236;2023-03-20T07:03:42;101281.44;;;9.74;76.56
49072;BME280;52656;52.610;10.236;2023-03-20T07:06:08;101281.94;;;9.88;76.21
49072;BME280;52656;52.610;10.236;2023-03-20T07:08:35;101288.75;;;9.97;75.93
49072;BME280;52656;52.610;10.236;2023-03-20T07:11:01;101282.53;;;9.98;75.99
49072;BME280;52656;52.610;10.236;2023-03-20T07:13:28;101286.84;;;10.02;75.75
49072;BME280;52656;52.610;10.236;2023-03-20T07:15:53;101287.50;;;10.10;75.97
49072;BME280;52656;52.610;10.236;2023-03-20T07:18:19;101289.78;;;10.23;75.38
49072;BME280;52656;52.610;10.236;2023-03-20T07:20:45;101284.34;;;10.27;74.32
49072;BME280;52656;52.610;10.236;2023-03-20T07:23:10;101287.59;;;10.37;74.45
49072;BME280;52656;52.610;10.236;2023-03-20T07:25:36;101287.44;;;10.41;74.57
49072;BME280;52656;52.610;10.236;2023-03-20T07:28:01;101298.97;;;10.40;73.91
49072;BME280;52656;52.610;10.236;2023-03-20T07:30:26;101286.34;;;10.49;74.22
49072;BME280;52656;52.610;10.236;2023-03-20T07:32:52;101287.97;;;10.53;74.40
49072;BME280;52656;52.610;10.236;2023-03-20T07:35:17;101284.28;;;10.58;73.97
49072;BME280;52656;52.610;10.236;2023-03-20T07:37:43;101285.19;;;10.57;73.93
49072;BME280;52656;52.610;10.236;2023-03-20T07:40:09;101274.72;;;10.25;74.14
49072;BME280;52656;52.610;10.236;2023-03-20T07:42:35;101277.72;;;10.42;74.42
49072;BME280;52656;52.610;10.236;2023-03-20T07:45:00;101288.47;;;10.65;73.88
49072;BME280;52656;52.610;10.236;2023-03-20T07:47:26;101287.09;;;10.54;74.02
49072;BME280;52656;52.610;10.236;2023-03-20T07:49:51;101290.09;;;10.69;73.15
49072;BME280;52656;52.610;10.236;2023-03-20T07:52:17;101282.44;;;10.60;73.45
49072;BME280;52656;52.610;10.236;2023-03-20T07:54:42;101290.09;;;10.41;74.01
49072;BME280;52656;52.610;10.236;2023-03-20T07:57:08;101289.06;;;10.17;74.00
49072;BME280;52656;52.610;10.236;2023-03-20T07:59:33;101296.22;;;10.14;74.53
49072;BME280;52656;52.610;10.236;2023-03-20T08:01:58;101290.06;;;10.13;74.46
49072;BME280;52656;52.610;10.236;2023-03-20T08:04:24;101299.59;;;10.19;74.03
49072;BME280;52656;52.610;10.236;2023-03-20T08:06:49;101298.75;;;10.17;73.94
49072;BME280;52656;52.610;10.236;2023-03-20T08:09:15;101294.38;;;10.16;74.48
49072;BME280;52656;52.610;10.236;2023-03-20T08:11:42;101303.19;;;10.16;74.89
49072;BME280;52656;52.610;10.236;2023-03-20T08:14:07;101311.13;;;10.16;75.34
49072;BME280;52656;52.610;10.236;2023-03-20T08:16:32;101305.28;;;10.05;76.05
49072;BME280;52656;52.610;10.236;2023-03-20T08:18:58;101308.13;;;10.29;74.38
49072;BME280;52656;52.610;10.236;2023-03-20T08:21:28;101309.59;;;10.09;76.23
49072;BME280;52656;52.610;10.236;2023-03-20T08:23:54;101312.19;;;10.11;75.65
49072;BME280;52656;52.610;10.236;2023-03-20T08:26:20;101315.16;;;9.99;77.05
49072;BME280;52656;52.610;10.236;2023-03-20T08:28:47;101307.06;;;10.05;76.63
49072;BME280;52656;52.610;10.236;2023-03-20T08:31:13;101304.59;;;9.99;77.28
49072;BME280;52656;52.610;10.236;2023-03-20T08:33:38;101316.28;;;9.91;77.58
49072;BME280;52656;52.610;10.236;2023-03-20T08:36:03;101319.53;;;10.01;76.85
49072;BME280;52656;52.610;10.236;2023-03-20T08:38:29;101327.50;;;10.00;76.82
49072;BME280;52656;52.610;10.236;2023-03-20T08:40:54;101331.97;;;9.98;76.97
49072;BME280;52656;52.610;10.236;2023-03-20T08:43:20;101336.56;;;9.91;77.02
49072;BME280;52656;52.610;10.236;2023-03-20T08:45:46;101331.03;;;10.00;76.47
49072;BME280;52656;52.610;10.236;2023-03-20T08:48:11;101325.88;;;9.96;77.13
49072;BME280;52656;52.610;10.236;2023-03-20T08:50:38;101329.50;;;9.91;77.29
49072;BME280;52656;52.610;10.236;2023-03-20T08:53:04;101332.50;;;9.78;78.15
49072;BME280;52656;52.610;10.236;2023-03-20T08:55:30;101324.56;;;10.10;76.92
49072;BME280;52656;52.610;10.236;2023-03-20T08:57:56;101329.75;;;10.44;74.69
49072;BME280;52656;52.610;10.236;2023-03-20T09:00:24;101327.28;;;10.66;73.37
49072;BME280;52656;52.610;10.236;2023-03-20T09:02:51;101329.03;;;10.95;71.82
49072;BME280;52656;52.610;10.236;2023-03-20T09:05:17;101331.28;;;11.08;71.33
49072;BME280;52656;52.610;10.236;2023-03-20T09:07:42;101324.25;;;11.07;70.26
49072;BME280;52656;52.610;10.236;2023-03-20T09:10:09;101337.19;;;11.16;69.66
49072;BME280;52656;52.610;10.236;2023-03-20T09:12:36;101328.28;;;11.18;69.77
49072;BME280;52656;52.610;10.236;2023-03-20T09:15:02;101328.19;;;11.23;68.89
49072;BME280;52656;52.610;10.236;2023-03-20T09:17:28;101329.19;;;11.45;67.61
49072;BME280;52656;52.610;10.236;2023-03-20T09:19:55;101324.97;;;11.40;66.65
49072;BME280;52656;52.610;10.236;2023-03-20T09:22:20;101326.53;;;11.70;66.38
49072;BME280;52656;52.610;10.236;2023-03-20T09:24:46;101323.69;;;11.77;65.18
49072;BME280;52656;52.610;10.236;2023-03-20T09:27:11;101320.53;;;11.90;65.32
49072;BME280;52656;52.610;10.236;2023-03-20T09:29:40;101332.69;;;11.73;64.89
49072;BME280;52656;52.610;10.236;2023-03-20T09:32:06;101329.03;;;11.75;65.01
49072;BME280;52656;52.610;10.236;2023-03-20T09:34:32;101337.91;;;11.74;64.80
49072;BME280;52656;52.610;10.236;2023-03-20T09:36:57;101336.03;;;11.78;64.47
49072;BME280;52656;52.610;10.236;2023-03-20T09:39:23;101345.22;;;11.92;62.86
49072;BME280;52656;52.610;10.236;2023-03-20T09:41:49;101346.31;;;11.87;63.83
49072;BME280;52656;52.610;10.236;2023-03-20T09:47:17;101346.84;;;11.18;62.41
49072;BME280;52656;52.610;10.236;2023-03-20T09:52:53;101350.56;;;11.41;63.42
49072;BME280;52656;52.610;10.236;2023-03-20T09:55:24;101353.94;;;11.46;63.34
49072;BME280;52656;52.610;10.236;2023-03-20T09:57:57;101352.28;;;11.68;63.04
49072;BME280;52656;52.610;10.236;2023-03-20T10:00:25;101348.63;;;11.71;62.76
49072;BME280;52656;52.610;10.236;2023-03-20T10:03:06;101344.81;;;11.53;61.28
49072;BME280;52656;52.610;10.236;2023-03-20T10:05:38;101344.78;;;11.55;61.99
49072;BME280;52656;52.610;10.236;2023-03-20T10:08:12;101344.13;;;11.48;61.93
49072;BME280;52656;52.610;10.236;2023-03-20T10:10:58;101348.72;;;11.43;62.72
49072;BME280;52656;52.610;10.236;2023-03-20T10:18:59;101339.69;;;11.49;62.38
49072;BME280;52656;52.610;10.236;2023-03-20T10:21:35;101335.56;;;11.40;62.14
49072;BME280;52656;52.610;10.236;2023-03-20T10:24:04;101337.47;;;10.80;63.52
49072;BME280;52656;52.610;10.236;2023-03-20T10:26:33;101339.53;;;11.53;62.13
49072;BME280;52656;52.610;10.236;2023-03-20T10:29:14;101332.44;;;12.04;60.79
49072;BME280;52656;52.610;10.236;2023-03-20T10:31:53;101333.84;;;12.14;60.51
49072;BME280;52656;52.610;10.236;2023-03-20T10:34:39;101330.16;;;12.41;59.69
49072;BME280;52656;52.610;10.236;2023-03-20T10:37:34;101328.81;;;12.30;59.38
49072;BME280;52656;52.610;10.236;2023-03-20T10:42:39;101329.75;;;12.29;58.88
49072;BME280;52656;52.610;10.236;2023-03-20T10:45:32;101340.28;;;12.30;58.02
49072;BME280;52656;52.610;10.236;2023-03-20T10:48:02;101323.47;;;12.55;58.04
49072;BME280;52656;52.610;10.236;2023-03-20T10:50:36;101319.34;;;12.91;56.58
49072;BME280;52656;52.610;10.236;2023-03-20T10:53:04;101318.59;;;12.88;57.10
49072;BME280;52656;52.610;10.236;2023-03-20T10:55:35;101317.72;;;12.65;57.07
49072;BME280;52656;52.610;10.236;2023-03-20T10:58:23;101306.31;;;12.63;56.72
49072;BME280;52656;52.610;10.236;2023-03-20T11:00:50;101318.47;;;12.45;57.73
49072;BME280;52656;52.610;10.236;2023-03-20T11:03:29;101311.91;;;12.56;57.48
49072;BME280;52656;52.610;10.236;2023-03-20T11:06:03;101310.00;;;12.59;57.89
49072;BME280;52656;52.610;10.236;2023-03-20T11:08:36;101311.50;;;12.88;56.84
49072;BME280;52656;52.610;10.236;2023-03-20T11:11:03;101296.59;;;13.06;54.81
49072;BME280;52656;52.610;10.236;2023-03-20T11:13:34;101302.47;;;13.14;54.88
49072;BME280;52656;52.610;10.236;2023-03-20T11:16:50;101308.22;;;13.46;53.96
49072;BME280;52656;52.610;10.236;2023-03-20T11:19:04;101289.25;;;13.54;52.87
49072;BME280;52656;52.610;10.236;2023-03-20T11:21:30;101290.97;;;13.34;53.84
49072;BME280;52656;52.610;10.236;2023-03-20T11:23:56;101288.66;;;13.27;53.59
49072;BME280;52656;52.610;10.236;2023-03-20T11:26:39;101301.22;;;13.23;53.07
49072;BME280;52656;52.610;10.236;2023-03-20T11:29:09;101298.56;;;13.01;53.77
49072;BME280;52656;52.610;10.236;2023-03-20T11:31:39;101294.97;;;13.02;53.58
49072;BME280;52656;52.610;10.236;2023-03-20T11:34:18;101294.03;;;13.03;53.67
49072;BME280;52656;52.610;10.236;2023-03-20T11:36:56;101290.56;;;13.23;52.61
49072;BME280;52656;52.610;10.236;2023-03-20T11:39:24;101282.50;;;14.06;51.46
49072;BME280;52656;52.610;10.236;2023-03-20T11:41:53;101279.69;;;14.66;50.52
49072;BME280;52656;52.610;10.236;2023-03-20T11:44:24;101278.34;;;14.76;49.75
49072;BME280;52656;52.610;10.236;2023-03-20T11:49:24;101277.28;;;14.97;49.52
49072;BME280;52656;52.610;10.236;2023-03-20T11:51:52;101272.31;;;14.72;49.65
49072;BME280;52656;52.610;10.236;2023-03-20T11:54:20;101265.78;;;14.78;48.70
49072;BME280;52656;52.610;10.236;2023-03-20T11:56:54;101273.59;;;15.00;47.67
49072;BME280;52656;52.610;10.236;2023-03-20T11:59:21;101273.84;;;15.47;46.92
49072;BME280;52656;52.610;10.236;2023-03-20T12:01:53;101256.56;;;15.72;44.89
49072;BME280;52656;52.610;10.236;2023-03-20T12:04:31;101251.16;;;16.22;44.71
49072;BME280;52656;52.610;10.236;2023-03-20T12:09:42;101238.31;;;16.29;44.05
49072;BME280;52656;52.610;10.236;2023-03-20T12:20:33;101256.13;;;14.57;47.19
49072;BME280;52656;52.610;10.236;2023-03-20T12:23:12;101255.72;;;14.28;47.66
49072;BME280;52656;52.610;10.236;2023-03-20T12:25:46;101252.63;;;14.37;47.52
49072;BME280;52656;52.610;10.236;2023-03-20T12:28:25;101247.41;;;14.53;46.70
49072;BME280;52656;52.610;10.236;2023-03-20T12:36:16;101242.09;;;14.89;43.99
49072;BME280;52656;52.610;10.236;2023-03-20T12:38:43;101238.75;;;15.20;43.30
49072;BME280;52656;52.610;10.236;2023-03-20T12:41:10;101226.69;;;14.96;42.16
49072;BME280;52656;52.610;10.236;2023-03-20T12:43:57;101229.59;;;14.17;42.66
49072;BME280;52656;52.610;10.236;2023-03-20T12:52:17;101211.03;;;15.58;42.25
49072;BME280;52656;52.610;10.236;2023-03-20T12:54:57;101205.59;;;15.59;42.01
49072;BME280;52656;52.610;10.236;2023-03-20T13:03:23;101218.25;;;15.38;41.19
49072;BME280;52656;52.610;10.236;2023-03-20T13:17:38;101207.72;;;14.47;43.53
49072;BME280;52656;52.610;10.236;2023-03-20T13:20:33;101217.88;;;14.58;43.49
49072;BME280;52656;52.610;10.236;2023-03-20T13:34:05;101206.63;;;14.15;43.90
49072;BME280;52656;52.610;10.236;2023-03-20T13:36:46;101213.75;;;13.95;42.84
49072;BME280;52656;52.610;10.236;2023-03-20T13:39:18;101215.16;;;13.65;42.92
49072;BME280;52656;52.610;10.236;2023-03-20T13:41:47;101210.00;;;13.60;43.81
49072;BME280;52656;52.610;10.236;2023-03-20T13:44:15;101214.75;;;13.54;43.97
49072;BME280;52656;52.610;10.236;2023-03-20T13:49:36;101220.25;;;13.69;43.90
49072;BME280;52656;52.610;10.236;2023-03-20T13:52:15;101216.19;;;14.00;43.09
49072;BME280;52656;52.610;10.236;2023-03-20T13:55:21;101214.47;;;14.18;41.68
49072;BME280;52656;52.610;10.236;2023-03-20T14:05:41;101199.19;;;14.58;42.63
49072;BME280;52656;52.610;10.236;2023-03-20T14:10:55;101198.78;;;14.67;42.25
49072;BME280;52656;52.610;10.236;2023-03-20T14:13:29;101184.72;;;14.63;40.73
49072;BME280;52656;52.610;10.236;2023-03-20T14:15:56;101191.38;;;14.55;42.06
49072;BME280;52656;52.610;10.236;2023-03-20T14:18:24;101193.78;;;14.42;42.20
49072;BME280;52656;52.610;10.236;2023-03-20T14:20:54;101193.34;;;14.32;40.98
49072;BME280;52656;52.610;10.236;2023-03-20T14:23:49;101186.31;;;14.31;41.52
49072;BME280;52656;52.610;10.236;2023-03-20T14:31:27;101188.91;;;13.56;42.63
49072;BME280;52656;52.610;10.236;2023-03-20T14:36:58;101183.22;;;13.84;44.07
49072;BME280;52656;52.610;10.236;2023-03-20T14:47:34;101198.19;;;13.86;43.58
49072;BME280;52656;52.610;10.236;2023-03-20T14:50:22;101183.94;;;13.87;43.90
49072;BME280;52656;52.610;10.236;2023-03-20T14:55:33;101191.63;;;13.75;44.41
49072;BME280;52656;52.610;10.236;2023-03-20T15:00:53;101192.13;;;13.64;44.79
49072;BME280;52656;52.610;10.236;2023-03-20T15:03:18;101188.31;;;13.69;43.42
49072;BME280;52656;52.610;10.236;2023-03-20T15:05:46;101184.38;;;13.97;44.04